createdAt,value
2022-08-28T00:00:46.318Z,100723.31
2022-08-28T00:03:17.822Z,100731.16
2022-08-28T00:05:48.615Z,100733.00
2022-08-28T00:08:19.465Z,100727.66
2022-08-28T00:10:50.163Z,100719.22
2022-08-28T00:13:23.912Z,100724.16
2022-08-28T00:15:59.618Z,100707.91
2022-08-28T00:18:32.603Z,100697.81
2022-08-28T00:21:03.429Z,100701.09
2022-08-28T00:23:36.936Z,100707.66
2022-08-28T00:26:33.666Z,100699.84
2022-08-28T00:29:05.203Z,100702.31
2022-08-28T00:31:39.870Z,100708.88
2022-08-28T00:34:11.336Z,100696.75
2022-08-28T00:36:42.761Z,100700.22
2022-08-28T00:39:13.243Z,100704.53
2022-08-28T00:41:46.989Z,100703.91
2022-08-28T00:44:23.461Z,100711.09
2022-08-28T00:46:56.030Z,100718.53
2022-08-28T00:49:39.468Z,100718.94
2022-08-28T00:52:12.974Z,100710.50
2022-08-28T00:54:59.125Z,100710.09
2022-08-28T00:57:35.741Z,100709.44
2022-08-28T01:00:11.283Z,100714.59
2022-08-28T01:02:42.584Z,100701.59
2022-08-28T01:05:13.097Z,100711.47
2022-08-28T01:07:44.407Z,100700.56
2022-08-28T01:10:20.228Z,100703.19
2022-08-28T01:12:51.552Z,100711.63
2022-08-28T01:15:25.796Z,100712.03
2022-08-28T01:18:02.577Z,100710.78
2022-08-28T01:20:37.765Z,100721.91
2022-08-28T01:23:15.441Z,100719.63
2022-08-28T01:25:46.018Z,100716.72
2022-08-28T01:28:17.975Z,100717.34
2022-08-28T01:30:51.031Z,100713.19
2022-08-28T01:33:24.304Z,100710.88
2022-08-28T01:36:00.528Z,100717.69
2022-08-28T01:38:30.799Z,100717.28
2022-08-28T01:41:00.870Z,100714.59
2022-08-28T01:43:32.670Z,100716.00
2022-08-28T01:46:06.166Z,100705.72
2022-08-28T01:48:39.266Z,100710.84
2022-08-28T01:51:10.777Z,100706.94
2022-08-28T01:53:45.041Z,100705.69
2022-08-28T01:56:19.025Z,100710.84
2022-08-28T01:58:49.766Z,100710.63
2022-08-28T02:01:23.492Z,100714.50
2022-08-28T02:03:57.059Z,100715.34
2022-08-28T02:06:27.493Z,100713.06
2022-08-28T02:08:57.613Z,100709.72
2022-08-28T02:11:30.563Z,100708.47
2022-08-28T02:14:01.983Z,100706.41
2022-08-28T02:16:32.214Z,100709.69
2022-08-28T02:19:04.279Z,100707.22
2022-08-28T02:21:34.776Z,100703.31
2022-08-28T02:24:06.245Z,100692.13
2022-08-28T02:26:36.868Z,100688.41
2022-08-28T02:29:07.831Z,100684.06
2022-08-28T02:31:38.471Z,100679.97
2022-08-28T02:34:08.661Z,100688.84
2022-08-28T02:36:43.287Z,100687.22
2022-08-28T02:39:14.026Z,100686.56
2022-08-28T02:41:44.466Z,100691.94
2022-08-28T02:44:14.525Z,100697.31
2022-08-28T02:46:44.831Z,100691.13
2022-08-28T02:49:14.817Z,100686.56
2022-08-28T02:51:44.763Z,100681.84
2022-08-28T02:54:14.766Z,100675.41
2022-08-28T02:56:48.705Z,100674.38
2022-08-28T02:59:18.773Z,100660.97
2022-08-28T03:01:49.856Z,100660.97
2022-08-28T03:04:20.924Z,100666.34
2022-08-28T03:06:51.799Z,100662.59
2022-08-28T03:09:21.759Z,100673.72
2022-08-28T03:11:53.160Z,100672.91
2022-08-28T03:14:25.259Z,100672.47
2022-08-28T03:16:55.758Z,100675.16
2022-08-28T03:19:25.951Z,100662.56
2022-08-28T03:21:57.860Z,100667.94
2022-08-28T03:24:27.924Z,100667.72
2022-08-28T03:26:58.091Z,100667.72
2022-08-28T03:29:27.482Z,100667.28
2022-08-28T03:31:57.431Z,100665.19
2022-08-28T03:34:27.439Z,100653.81
2022-08-28T03:36:57.578Z,100663.88
2022-08-28T03:39:28.441Z,100662.00
2022-08-28T03:41:58.507Z,100659.09
2022-08-28T03:44:28.539Z,100651.22
2022-08-28T03:46:58.452Z,100640.03
2022-08-28T03:49:28.770Z,100642.13
2022-08-28T03:51:59.284Z,100646.69
2022-08-28T03:54:32.541Z,100642.56
2022-08-28T03:57:02.491Z,100639.28
2022-08-28T03:59:33.677Z,100636.59
2022-08-28T04:02:03.700Z,100643.00
2022-08-28T04:04:33.981Z,100643.84
2022-08-28T04:07:04.682Z,100645.69
2022-08-28T04:09:34.764Z,100642.19
2022-08-28T04:12:05.033Z,100639.28
2022-08-28T04:14:35.243Z,100630.63
2022-08-28T04:17:06.824Z,100623.97
2022-08-28T04:19:37.440Z,100621.69
2022-08-28T04:22:07.509Z,100623.94
2022-08-28T04:24:37.504Z,100620.00
2022-08-28T04:27:07.527Z,100608.56
2022-08-28T04:29:37.528Z,100604.16
2022-08-28T04:32:07.590Z,100594.44
2022-08-28T04:34:39.855Z,100603.22
2022-08-28T04:37:10.337Z,100606.28
2022-08-28T04:39:40.391Z,100595.91
2022-08-28T04:42:10.332Z,100592.53
2022-08-28T04:44:40.132Z,100585.91
2022-08-28T04:47:10.398Z,100597.25
2022-08-28T04:49:42.195Z,100599.94
2022-08-28T04:52:13.401Z,100604.91
2022-08-28T04:54:44.035Z,100607.59
2022-08-28T04:57:14.601Z,100601.16
2022-08-28T04:59:46.403Z,100603.38
2022-08-28T05:02:17.044Z,100606.88
2022-08-28T05:04:47.227Z,100612.50
2022-08-28T05:07:17.219Z,100623.22
2022-08-28T05:10:02.418Z,100621.03
2022-08-28T05:12:59.971Z,100617.94
2022-08-28T05:15:30.439Z,100629.13
2022-08-28T05:18:00.816Z,100626.88
2022-08-28T05:20:30.828Z,100637.25
2022-08-28T05:23:00.739Z,100637.09
2022-08-28T05:25:30.727Z,100643.97
2022-08-28T05:28:00.673Z,100644.41
2022-08-28T05:30:30.638Z,100631.41
2022-08-28T05:33:02.010Z,100639.91
2022-08-28T05:35:35.714Z,100640.34
2022-08-28T05:38:06.930Z,100649.66
2022-08-28T05:40:42.347Z,100662.72
2022-08-28T05:43:14.015Z,100667.69
2022-08-28T05:46:01.397Z,100664.63
2022-08-28T05:48:33.682Z,100651.69
2022-08-28T05:51:11.127Z,100651.69
2022-08-28T05:53:43.215Z,100646.13
2022-08-28T05:56:16.355Z,100643.06
2022-08-28T05:58:47.093Z,100640.81
2022-08-28T06:01:23.691Z,100641.84
2022-08-28T06:03:57.172Z,100630.72
2022-08-28T06:06:30.565Z,100632.81
2022-08-28T06:09:03.778Z,100639.50
2022-08-28T06:11:34.793Z,100645.31
2022-08-28T06:14:10.852Z,100634.38
2022-08-28T06:16:43.576Z,100632.13
2022-08-28T06:19:14.897Z,100621.84
2022-08-28T06:21:45.414Z,100626.56
2022-08-28T06:24:15.887Z,100632.56
2022-08-28T06:26:47.227Z,100624.75
2022-08-28T06:29:46.031Z,100608.63
2022-08-28T06:32:36.591Z,100603.50
2022-08-28T06:35:24.883Z,100596.47
2022-08-28T06:37:56.090Z,100594.25
2022-08-28T06:41:08.317Z,100588.47
2022-08-28T06:44:07.605Z,100595.69
2022-08-28T06:46:38.531Z,100587.06
2022-08-28T06:49:10.665Z,100580.41
2022-08-28T06:51:42.350Z,100573.22
2022-08-28T06:54:13.355Z,100583.94
2022-08-28T06:56:44.001Z,100577.72
2022-08-28T06:59:14.218Z,100568.88
2022-08-28T07:01:44.285Z,100569.69
2022-08-28T07:04:18.114Z,100564.78
2022-08-28T07:06:54.228Z,100579.44
2022-08-28T07:09:25.692Z,100573.47
2022-08-28T07:11:56.125Z,100571.22
2022-08-28T07:14:27.647Z,100566.31
2022-08-28T07:16:58.849Z,100571.69
2022-08-28T07:19:29.407Z,100567.56
2022-08-28T07:21:59.415Z,100564.06
2022-08-28T07:24:31.026Z,100579.09
2022-08-28T07:27:01.138Z,100577.25
2022-08-28T07:29:31.184Z,100583.03
2022-08-28T07:32:01.806Z,100581.59
2022-08-28T07:34:32.218Z,100575.63
2022-08-28T07:37:05.524Z,100581.06
2022-08-28T07:39:36.379Z,100591.56
2022-08-28T07:42:06.590Z,100589.13
2022-08-28T07:44:51.709Z,100584.78
2022-08-28T07:47:21.828Z,100581.72
2022-08-28T07:49:53.744Z,100573.28
2022-08-28T07:52:23.891Z,100579.28
2022-08-28T07:54:53.856Z,100575.38
2022-08-28T07:57:24.226Z,100574.41
2022-08-28T07:59:54.488Z,100571.31
2022-08-28T08:02:24.539Z,100571.16
2022-08-28T08:04:55.105Z,100574.03
2022-08-28T08:07:25.456Z,100573.03
2022-08-28T08:09:55.414Z,100572.81
2022-08-28T08:12:29.453Z,100578.22
2022-08-28T08:14:59.706Z,100571.84
2022-08-28T08:17:30.260Z,100578.84
2022-08-28T08:20:00.261Z,100576.84
2022-08-28T08:22:31.316Z,100573.97
2022-08-28T08:25:01.984Z,100575.44
2022-08-28T08:27:32.542Z,100575.44
2022-08-28T08:30:02.545Z,100571.31
2022-08-28T08:32:33.004Z,100569.03
2022-08-28T08:35:03.079Z,100562.25
2022-08-28T08:37:33.099Z,100547.66
2022-08-28T08:40:05.502Z,100547.88
2022-08-28T08:42:39.917Z,100555.69
2022-08-28T08:45:17.009Z,100552.38
2022-08-28T08:47:53.794Z,100543.13
2022-08-28T08:50:33.840Z,100540.25
2022-08-28T08:53:29.703Z,100540.03
2022-08-28T08:56:01.338Z,100548.28
2022-08-28T08:58:39.746Z,100547.66
2022-08-28T09:01:28.134Z,100541.91
2022-08-28T09:04:35.874Z,100548.69
2022-08-28T09:07:40.329Z,100543.34
2022-08-28T09:10:12.731Z,100552.66
2022-08-28T09:12:55.633Z,100548.75
2022-08-28T09:15:40.700Z,100544.22
2022-08-28T09:18:33.381Z,100552.28
2022-08-28T09:21:04.148Z,100546.72
2022-08-28T09:23:34.813Z,100563.56
2022-08-28T09:26:13.701Z,100560.50
2022-08-28T09:28:51.959Z,100561.72
2022-08-28T09:31:40.439Z,100574.28
2022-08-28T09:34:28.357Z,100583.34
2022-08-28T09:37:00.917Z,100589.09
2022-08-28T09:39:33.512Z,100588.50
2022-08-28T09:42:42.953Z,100579.00
2022-08-28T09:45:22.386Z,100579.22
2022-08-28T09:48:01.543Z,100575.94
2022-08-28T09:50:36.710Z,100580.66
2022-08-28T09:53:17.883Z,100590.53
2022-08-28T09:56:24.768Z,100580.88
2022-08-28T09:59:03.985Z,100588.28
2022-08-28T10:02:00.276Z,100586.66
2022-08-28T10:05:00.465Z,100587.88
2022-08-28T10:07:39.526Z,100590.75
2022-08-28T10:10:47.759Z,100594.66
2022-08-28T10:13:33.155Z,100597.53
2022-08-28T10:16:33.392Z,100597.13
2022-08-28T10:19:35.422Z,100588.47
2022-08-28T10:22:28.627Z,100582.50
2022-08-28T10:25:26.162Z,100583.34
2022-08-28T10:28:00.406Z,100577.56
2022-08-28T10:30:38.073Z,100583.75
2022-08-28T10:33:22.436Z,100585.59
2022-08-28T10:36:09.211Z,100584.13
2022-08-28T10:39:21.527Z,100584.13
2022-08-28T10:41:59.457Z,100577.16
2022-08-28T10:44:55.814Z,100580.03
2022-08-28T10:47:30.068Z,100581.88
2022-08-28T10:50:09.303Z,100575.69
2022-08-28T10:52:51.492Z,100575.28
2022-08-28T10:55:21.542Z,100579.81
2022-08-28T10:58:01.195Z,100577.97
2022-08-28T11:00:32.389Z,100576.34
2022-08-28T11:03:32.884Z,100585.38
2022-08-28T11:06:18.179Z,100591.09
2022-08-28T11:08:59.316Z,100583.28
2022-08-28T11:11:50.861Z,100594.41
2022-08-28T11:14:47.782Z,100591.50
2022-08-28T11:17:31.610Z,100597.25
2022-08-28T11:20:26.272Z,100604.84
2022-08-28T11:23:08.754Z,100612.88
2022-08-28T11:25:58.776Z,100613.25
2022-08-28T11:28:38.371Z,100615.13
2022-08-28T11:31:08.904Z,100620.66
2022-08-28T11:33:39.480Z,100605.88
2022-08-28T11:36:22.937Z,100614.50
2022-08-28T11:38:56.762Z,100611.84
2022-08-28T11:41:30.813Z,100610.78
2022-08-28T11:44:16.265Z,100612.44
2022-08-28T11:46:49.605Z,100606.28
2022-08-28T11:49:28.769Z,100607.09
2022-08-28T11:52:04.553Z,100599.09
2022-08-28T11:54:47.867Z,100602.78
2022-08-28T11:57:48.900Z,100601.16
2022-08-28T12:00:48.737Z,100601.34
2022-08-28T12:03:42.161Z,100603.81
2022-08-28T12:06:14.582Z,100604.63
2022-08-28T12:08:48.230Z,100609.97
2022-08-28T12:11:42.937Z,100601.75
2022-08-28T12:14:38.744Z,100595.19
2022-08-28T12:21:00.213Z,100607.09
2022-08-28T12:26:40.080Z,100615.31
2022-08-28T12:29:31.640Z,100612.84
2022-08-28T12:32:26.207Z,100605.88
2022-08-28T12:35:02.997Z,100606.88
2022-08-28T12:37:52.776Z,100612.41
2022-08-28T12:40:35.251Z,100616.06
2022-08-28T12:43:11.500Z,100591.59
2022-08-28T12:46:19.379Z,100586.91
2022-08-28T12:49:42.607Z,100582.56
2022-08-28T12:52:24.614Z,100590.59
2022-08-28T12:55:00.121Z,100581.16
2022-08-28T12:57:30.198Z,100587.50
2022-08-28T13:00:10.975Z,100581.72
2022-08-28T13:02:46.509Z,100590.56
2022-08-28T13:05:33.993Z,100581.72
2022-08-28T13:08:09.673Z,100582.56
2022-08-28T13:10:44.063Z,100580.72
2022-08-28T13:13:36.100Z,100576.41
2022-08-28T13:16:12.242Z,100569.38
2022-08-28T13:18:55.370Z,100575.56
2022-08-28T13:21:34.453Z,100569.59
2022-08-28T13:24:27.417Z,100569.16
2022-08-28T13:27:18.665Z,100577.81
2022-08-28T13:29:57.302Z,100576.16
2022-08-28T13:32:33.996Z,100573.50
2022-08-28T13:35:31.916Z,100574.50
2022-08-28T13:38:10.065Z,100568.34
2022-08-28T13:40:57.470Z,100571.03
2022-08-28T13:43:57.543Z,100565.69
2022-08-28T13:46:51.953Z,100560.53
2022-08-28T13:52:12.076Z,100558.47
2022-08-28T13:54:45.339Z,100554.19
2022-08-28T13:57:16.563Z,100557.66
2022-08-28T13:59:46.816Z,100550.06
2022-08-28T14:02:36.105Z,100551.91
2022-08-28T14:05:07.562Z,100547.56
2022-08-28T14:07:40.803Z,100561.78
2022-08-28T14:10:15.414Z,100557.44
2022-08-28T14:12:48.337Z,100555.59
2022-08-28T14:15:19.565Z,100546.75
2022-08-28T14:17:49.554Z,100537.94
2022-08-28T14:20:19.759Z,100539.56
2022-08-28T14:22:49.969Z,100544.09
2022-08-28T14:25:19.434Z,100550.25
2022-08-28T14:27:49.978Z,100546.75
2022-08-28T14:30:20.816Z,100551.09
2022-08-28T14:32:50.887Z,100541.63
2022-08-28T14:35:21.316Z,100541.41
2022-08-28T14:37:51.556Z,100535.06
2022-08-28T14:40:22.249Z,100523.53
2022-08-28T14:42:53.469Z,100517.19
2022-08-28T14:45:23.562Z,100531.56
2022-08-28T14:47:54.235Z,100534.22
2022-08-28T14:50:24.559Z,100534.22
2022-08-28T14:52:57.261Z,100535.06
2022-08-28T14:55:27.828Z,100539.56
2022-08-28T14:57:57.937Z,100537.94
2022-08-28T15:00:27.986Z,100546.16
2022-08-28T15:03:10.134Z,100548.81
2022-08-28T15:05:40.518Z,100540.81
2022-08-28T15:08:13.509Z,100542.66
2022-08-28T15:10:45.313Z,100546.97
2022-08-28T15:13:15.560Z,100543.66
2022-08-28T15:15:46.344Z,100540.00
2022-08-28T15:18:16.850Z,100539.13
2022-08-28T15:20:48.574Z,100533.81
2022-08-28T15:23:18.793Z,100542.03
2022-08-28T15:25:48.931Z,100541.00
2022-08-28T15:28:20.138Z,100541.19
2022-08-28T15:30:53.596Z,100534.22
2022-08-28T15:33:23.670Z,100544.06
2022-08-28T15:35:57.445Z,100539.56
2022-08-28T15:38:28.210Z,100537.72
2022-08-28T15:41:16.425Z,100531.56
2022-08-28T15:43:47.646Z,100533.38
2022-08-28T15:46:18.089Z,100530.94
2022-08-28T15:48:49.612Z,100530.94
2022-08-28T15:51:23.897Z,100538.94
2022-08-28T15:53:56.351Z,100538.09
2022-08-28T15:56:26.649Z,100522.09
2022-08-28T15:58:57.273Z,100526.41
2022-08-28T16:01:27.485Z,100522.09
2022-08-28T16:03:57.641Z,100529.28
2022-08-28T16:06:30.302Z,100520.44
2022-08-28T16:09:01.054Z,100520.44
2022-08-28T16:11:32.177Z,100525.59
2022-08-28T16:14:05.972Z,100526.41
2022-08-28T16:16:37.812Z,100531.75
2022-08-28T16:19:10.669Z,100530.50
2022-08-28T16:21:42.030Z,100530.50
2022-08-28T16:24:12.404Z,100526.22
2022-08-28T16:26:42.042Z,100529.91
2022-08-28T16:29:12.090Z,100531.75
2022-08-28T16:31:42.161Z,100530.09
2022-08-28T16:34:12.322Z,100529.09
2022-08-28T16:36:42.491Z,100531.75
2022-08-28T16:39:12.898Z,100529.91
2022-08-28T16:41:44.484Z,100524.56
2022-08-28T16:44:14.981Z,100514.06
2022-08-28T16:46:46.139Z,100510.38
2022-08-28T16:49:17.300Z,100525.38
2022-08-28T16:51:47.931Z,100522.69
2022-08-28T16:54:19.576Z,100512.03
2022-08-28T16:56:50.347Z,100512.03
2022-08-28T16:59:23.433Z,100500.72
2022-08-28T17:01:54.539Z,100507.53
2022-08-28T17:04:25.063Z,100505.88
2022-08-28T17:06:56.119Z,100509.34
2022-08-28T17:09:27.706Z,100508.94
2022-08-28T17:11:58.719Z,100517.78
2022-08-28T17:14:31.726Z,100510.63
2022-08-28T17:17:02.039Z,100507.94
2022-08-28T17:19:32.880Z,100514.91
2022-08-28T17:22:22.391Z,100510.63
2022-08-28T17:25:00.018Z,100510.00
2022-08-28T17:27:33.419Z,100513.69
2022-08-28T17:30:06.306Z,100510.19
2022-08-28T17:32:36.683Z,100509.16
2022-08-28T17:35:07.544Z,100496.84
2022-08-28T17:37:39.851Z,100493.97
2022-08-28T17:40:17.083Z,100510.38
2022-08-28T17:42:49.415Z,100504.84
2022-08-28T17:45:19.279Z,100512.03
2022-08-28T17:47:49.661Z,100516.53
2022-08-28T17:50:19.632Z,100507.53
2022-08-28T17:52:49.733Z,100505.66
2022-08-28T17:55:22.328Z,100503.00
2022-08-28T17:57:53.630Z,100505.66
2022-08-28T18:00:24.016Z,100503.00
2022-08-28T18:02:55.800Z,100504.66
2022-08-28T18:05:26.238Z,100501.34
2022-08-28T18:07:56.900Z,100501.56
2022-08-28T18:10:27.654Z,100499.91
2022-08-28T18:12:58.036Z,100504.25
2022-08-28T18:15:30.085Z,100501.56
2022-08-28T18:18:00.588Z,100509.56
2022-08-28T18:20:30.632Z,100510.38
2022-08-28T18:23:00.847Z,100510.38
2022-08-28T18:25:43.372Z,100514.06
2022-08-28T18:28:24.245Z,100506.44
2022-08-28T18:30:55.302Z,100499.28
2022-08-28T18:33:27.091Z,100498.44
2022-08-28T18:35:57.422Z,100512.44
2022-08-28T18:38:30.142Z,100512.44
2022-08-28T18:41:01.080Z,100515.13
2022-08-28T18:43:31.837Z,100518.78
2022-08-28T18:46:03.670Z,100511.78
2022-08-28T18:48:34.460Z,100514.47
2022-08-28T18:51:09.016Z,100519.41
2022-08-28T18:53:42.261Z,100509.78
2022-08-28T18:56:13.842Z,100508.72
2022-08-28T18:58:44.629Z,100510.38
2022-08-28T19:01:14.715Z,100508.72
2022-08-28T19:03:44.809Z,100518.78
2022-08-28T19:06:16.411Z,100530.28
2022-08-28T19:08:47.872Z,100526.81
2022-08-28T19:11:19.128Z,100524.94
2022-08-28T19:13:49.873Z,100524.13
2022-08-28T19:16:21.760Z,100529.47
2022-08-28T19:18:53.988Z,100519.81
2022-08-28T19:21:25.460Z,100515.31
2022-08-28T19:23:56.718Z,100512.84
2022-08-28T19:26:28.934Z,100511.78
2022-08-28T19:29:00.069Z,100518.19
2022-08-28T19:31:31.001Z,100518.19
2022-08-28T19:34:02.670Z,100520.03
2022-08-28T19:36:32.705Z,100515.50
2022-08-28T19:39:03.029Z,100516.31
2022-08-28T19:41:34.269Z,100503.78
2022-08-28T19:44:05.818Z,100492.91
2022-08-28T19:46:38.503Z,100505.84
2022-08-28T19:49:09.267Z,100507.50
2022-08-28T19:51:40.711Z,100501.34
2022-08-28T19:54:15.652Z,100504.22
2022-08-28T19:56:46.273Z,100511.19
2022-08-28T19:59:16.556Z,100504.22
2022-08-28T20:01:47.703Z,100510.56
2022-08-28T20:04:19.064Z,100505.22
2022-08-28T20:06:49.933Z,100504.22
2022-08-28T20:09:20.245Z,100511.59
2022-08-28T20:11:51.046Z,100511.59
2022-08-28T20:14:23.038Z,100509.13
2022-08-28T20:16:55.617Z,100504.59
2022-08-28T20:19:25.785Z,100503.78
2022-08-28T20:21:55.860Z,100504.59
2022-08-28T20:24:26.427Z,100504.59
2022-08-28T20:26:56.447Z,100505.63
2022-08-28T20:29:27.461Z,100510.94
2022-08-28T20:31:57.649Z,100511.59
2022-08-28T20:34:27.765Z,100515.28
2022-08-28T20:36:57.717Z,100515.28
2022-08-28T20:39:27.633Z,100499.25
2022-08-28T20:41:58.033Z,100493.91
2022-08-28T20:44:27.981Z,100501.94
2022-08-28T20:46:57.884Z,100515.69
2022-08-28T20:49:27.885Z,100510.13
2022-08-28T20:51:58.914Z,100493.50
2022-08-28T20:54:35.532Z,100500.69
2022-08-28T20:57:09.863Z,100500.03
2022-08-28T20:59:42.544Z,100496.56
2022-08-28T21:02:21.708Z,100500.03
2022-08-28T21:04:52.269Z,100490.59
2022-08-28T21:07:24.451Z,100497.19
2022-08-28T21:10:06.262Z,100499.19
2022-08-28T21:12:40.219Z,100502.09
2022-08-28T21:15:13.844Z,100492.44
2022-08-28T21:17:44.089Z,100491.63
2022-08-28T21:20:16.085Z,100489.34
2022-08-28T21:22:46.188Z,100495.88
2022-08-28T21:25:17.303Z,100490.13
2022-08-28T21:27:48.183Z,100493.81
2022-08-28T21:30:23.191Z,100495.88
2022-08-28T21:32:55.462Z,100501.59
2022-08-28T21:35:26.024Z,100508.38
2022-08-28T21:37:55.958Z,100508.56
2022-08-28T21:40:25.992Z,100517.56
2022-08-28T21:42:55.961Z,100514.91
2022-08-28T21:45:26.193Z,100516.75
2022-08-28T21:47:56.304Z,100529.06
2022-08-28T21:50:30.340Z,100526.19
2022-08-28T21:53:01.944Z,100520.88
2022-08-28T21:55:32.274Z,100534.00
2022-08-28T21:58:02.238Z,100543.88
2022-08-28T22:00:32.726Z,100537.72
2022-08-28T22:03:02.837Z,100542.00
2022-08-28T22:05:32.222Z,100544.50
2022-08-28T22:08:02.234Z,100541.00
2022-08-28T22:10:33.557Z,100550.66
2022-08-28T22:13:05.778Z,100553.31
2022-08-28T22:15:36.918Z,100551.50
2022-08-28T22:18:08.454Z,100549.63
2022-08-28T22:21:01.477Z,100558.25
2022-08-28T22:23:35.876Z,100546.59
2022-08-28T22:26:14.435Z,100546.81
2022-08-28T22:28:45.847Z,100549.91
2022-08-28T22:31:16.381Z,100546.44
2022-08-28T22:33:48.778Z,100537.84
2022-08-28T22:36:18.929Z,100533.34
2022-08-28T22:38:53.449Z,100540.53
2022-08-28T22:41:24.337Z,100537.91
2022-08-28T22:43:56.823Z,100543.66
2022-08-28T22:46:27.029Z,100552.91
2022-08-28T22:48:58.058Z,100551.91
2022-08-28T22:51:28.272Z,100550.69
2022-08-28T22:53:58.633Z,100547.81
2022-08-28T22:56:28.709Z,100547.81
2022-08-28T22:58:58.628Z,100552.75
2022-08-28T23:01:29.191Z,100561.38
2022-08-28T23:04:02.519Z,100562.03
2022-08-28T23:06:33.739Z,100570.84
2022-08-28T23:09:04.217Z,100568.00
2022-08-28T23:11:34.791Z,100564.47
2022-08-28T23:14:06.217Z,100567.38
2022-08-28T23:16:37.337Z,100568.19
2022-08-28T23:19:13.547Z,100562.66
2022-08-28T23:21:48.317Z,100562.88
2022-08-28T23:24:23.030Z,100568.84
2022-08-28T23:26:53.370Z,100562.47
2022-08-28T23:29:23.588Z,100570.09
2022-08-28T23:31:53.714Z,100569.09
2022-08-28T23:34:25.071Z,100570.94
2022-08-28T23:36:55.707Z,100569.28
2022-08-28T23:39:29.061Z,100561.69
2022-08-28T23:42:00.911Z,100567.25
2022-08-28T23:44:32.349Z,100566.06
2022-08-28T23:47:02.743Z,100561.09
2022-08-28T23:49:42.642Z,100557.63
2022-08-28T23:52:13.605Z,100552.69
2022-08-28T23:54:43.752Z,100566.69
2022-08-28T23:57:15.597Z,100571.41
2022-08-28T23:59:45.868Z,100569.38
